Terminal Aerodrome Forecast
Issued by NWS Atlanta, GA

Home | Current Version | Previous Version | Text Only | Print | Product List | Glossary On
Versions: 1 2 3 4 5 6 7 8 9 10 11 12 13 14 15 16 17 18 19 20 21 22 23 24 25 26 27 28 29 30 31
000
FTUS42 KFFC 282335
TAFAHN
TAF
KAHN 282335Z 2900/2924 27010G15KT P6SM FEW050 BKN070
     FM290600 26006KT P6SM SCT100 BKN250
     FM291100 25005KT P6SM BKN015
     FM291500 28010KT P6SM SCT040=

USA.gov is the U.S. government's official web portal to all federal, state and local government web resources and services.